Time;durP1;ratioP1;P1;durP2;ratioP2;P2;SDS_P1;SDS_P2;PMS_P1;PMS_P2;Temp;Humidity;BMP_temperature;BMP_pressure;BME280_temperature;BME280_humidity;BME280_pressure;Samples;Min_cycle;Max_cycle;Signal;HPM_P1;HPM_P2
2021/10/06 00:00:19;;;;;;;5.70;1.50;;;;;;;;;;4939974;28;20054;-75
2021/10/06 00:02:47;;;;;;;6.15;1.23;;;;;;;;;;4980799;28;20080;-75
2021/10/06 00:05:15;;;;;;;7.63;1.80;;;;;;;;;;4958364;28;20633;-78
2021/10/06 00:07:42;;;;;;;6.10;1.40;;;;;;;;;;4964959;28;20060;-78
2021/10/06 00:10:09;;;;;;;8.98;1.38;;;;;;;;;;4976977;28;20492;-78
2021/10/06 00:12:36;;;;;;;5.20;1.33;;;;;;;;;;4975370;28;20083;-78
2021/10/06 00:15:05;;;;;;;3.42;1.10;;;;;;;;;;4958955;28;20681;-78
2021/10/06 00:17:35;;;;;;;4.75;1.30;;;;;;;;;;4951238;28;20147;-75
2021/10/06 00:20:05;;;;;;;4.80;1.42;;;;;;;;;;4972896;28;20026;-76
2021/10/06 00:22:32;;;;;;;6.97;1.45;;;;;;;;;;4979145;28;20053;-76
2021/10/06 00:25:00;;;;;;;5.88;1.30;;;;;;;;;;4980051;28;20026;-76
2021/10/06 00:27:29;;;;;;;3.22;1.00;;;;;;;;;;4963067;28;20048;-78
2021/10/06 00:29:57;;;;;;;5.03;1.10;;;;;;;;;;4983311;28;20029;-75
2021/10/06 00:32:25;;;;;;;5.72;1.48;;;;;;;;;;4976454;28;20038;-75
2021/10/06 00:34:53;;;;;;;6.32;1.60;;;;;;;;;;4974481;28;20033;-76
2021/10/06 00:37:22;;;;;;;5.28;1.30;;;;;;;;;;4976239;28;20068;-76
2021/10/06 00:39:49;;;;;;;5.72;1.40;;;;;;;;;;4964856;28;20099;-76
2021/10/06 00:42:16;;;;;;;6.85;1.42;;;;;;;;;;4971340;28;20093;-76
2021/10/06 00:44:43;;;;;;;7.28;1.23;;;;;;;;;;4962152;28;20034;-76
2021/10/06 00:47:13;;;;;;;5.30;1.42;;;;;;;;;;4974723;28;20077;-76
2021/10/06 00:49:41;;;;;;;7.25;1.40;;;;;;;;;;4957682;28;20456;-76
2021/10/06 00:52:15;;;;;;;4.80;1.27;;;;;;;;;;4973267;28;20057;-77
2021/10/06 00:54:41;;;;;;;4.70;1.02;;;;;;;;;;4945153;28;20030;-77
2021/10/06 00:57:09;;;;;;;3.67;0.90;;;;;;;;;;4959245;28;20391;-78
2021/10/06 00:59:37;;;;;;;5.88;1.20;;;;;;;;;;4980929;28;20119;-77
2021/10/06 01:02:04;;;;;;;3.25;0.80;;;;;;;;;;4958945;28;20668;-78
2021/10/06 01:04:33;;;;;;;6.13;1.25;;;;;;;;;;4977670;28;20027;-78
2021/10/06 01:07:03;;;;;;;4.35;1.20;;;;;;;;;;4976069;28;20514;-76
2021/10/06 01:09:31;;;;;;;5.32;1.15;;;;;;;;;;4978708;28;20117;-76
2021/10/06 01:12:00;;;;;;;7.32;1.70;;;;;;;;;;4981810;28;20068;-76
2021/10/06 01:14:28;;;;;;;3.33;1.00;;;;;;;;;;4962657;28;20034;-78
2021/10/06 01:16:56;;;;;;;5.72;1.33;;;;;;;;;;4977516;28;20116;-77
2021/10/06 01:19:25;;;;;;;5.20;1.50;;;;;;;;;;4972787;28;20053;-75
2021/10/06 01:21:52;;;;;;;5.43;1.52;;;;;;;;;;4964924;28;20112;-75
2021/10/06 01:24:21;;;;;;;5.05;1.20;;;;;;;;;;4974934;28;20041;-75
2021/10/06 01:26:57;;;;;;;;;;;;;;;;;;4977392;28;20034;-75
2021/10/06 01:29:25;;;;;;;4.70;1.13;;;;;;;;;;4977213;28;19940;-75
2021/10/06 01:31:54;;;;;;;5.78;1.40;;;;;;;;;;4966168;28;20490;-75
2021/10/06 01:34:22;;;;;;;5.90;1.50;;;;;;;;;;4920946;28;20172;-75
2021/10/06 01:36:52;;;;;;;5.43;1.55;;;;;;;;;;4962827;28;20039;-75
2021/10/06 01:39:21;;;;;;;4.93;1.17;;;;;;;;;;4973351;28;20085;-75
2021/10/06 01:41:54;;;;;;;5.53;1.20;;;;;;;;;;4960506;28;20119;-75
2021/10/06 01:44:22;;;;;;;3.38;0.95;;;;;;;;;;4957822;28;20039;-75
2021/10/06 01:46:49;;;;;;;3.47;0.90;;;;;;;;;;4976619;28;20014;-76
2021/10/06 01:49:16;;;;;;;6.15;1.15;;;;;;;;;;4957343;28;20117;-76
2021/10/06 01:51:42;;;;;;;5.20;1.00;;;;;;;;;;4963592;28;20064;-76
2021/10/06 01:54:09;;;;;;;;;;;;;;;;;;4970991;28;20044;-76
2021/10/06 01:56:35;;;;;;;4.13;1.10;;;;;;;;;;4977385;28;19917;-75
2021/10/06 01:59:01;;;;;;;;;;;;;;;;;;4954912;28;20033;-76
2021/10/06 02:01:29;;;;;;;7.93;1.20;;;;;;;;;;4974819;28;19987;-76
2021/10/06 02:03:56;;;;;;;4.93;0.90;;;;;;;;;;4974966;28;20497;-75
2021/10/06 02:06:23;;;;;;;3.17;0.70;;;;;;;;;;4921635;28;20042;-76
2021/10/06 02:08:51;;;;;;;3.22;0.70;;;;;;;;;;4975645;28;20040;-76
2021/10/06 02:11:18;;;;;;;2.92;0.80;;;;;;;;;;4972309;28;20026;-75
2021/10/06 02:13:46;;;;;;;5.78;0.90;;;;;;;;;;4975109;28;20033;-75
2021/10/06 02:16:13;;;;;;;3.80;0.65;;;;;;;;;;4966490;28;20069;-76
2021/10/06 02:18:40;;;;;;;3.22;0.85;;;;;;;;;;4963963;28;20030;-77
2021/10/06 02:21:07;;;;;;;3.60;0.75;;;;;;;;;;4969614;28;20026;-75
2021/10/06 02:23:35;;;;;;;5.32;1.20;;;;;;;;;;4972597;28;20739;-75
2021/10/06 02:26:01;;;;;;;4.95;0.95;;;;;;;;;;4955708;28;20080;-76
2021/10/06 02:28:29;;;;;;;4.90;1.00;;;;;;;;;;4974192;28;20025;-75
2021/10/06 02:30:56;;;;;;;5.25;1.10;;;;;;;;;;4957951;28;20418;-75
2021/10/06 02:33:22;;;;;;;5.13;1.02;;;;;;;;;;4955315;28;20060;-75
2021/10/06 02:35:48;;;;;;;;;;;;;;;;;;4973946;28;20022;-75
2021/10/06 02:38:15;;;;;;;3.88;1.10;;;;;;;;;;4968816;28;19918;-76
2021/10/06 02:40:42;;;;;;;5.78;1.08;;;;;;;;;;4972158;28;20165;-76
2021/10/06 02:43:09;;;;;;;4.03;1.17;;;;;;;;;;4970135;28;20034;-75
2021/10/06 02:45:36;;;;;;;3.58;0.80;;;;;;;;;;4960838;28;20034;-75
2021/10/06 02:48:05;;;;;;;4.80;0.98;;;;;;;;;;4974015;28;20391;-76
2021/10/06 02:50:31;;;;;;;5.93;1.17;;;;;;;;;;4974346;28;20092;-76
2021/10/06 02:52:59;;;;;;;5.47;1.02;;;;;;;;;;4959196;28;20033;-75
2021/10/06 02:55:28;;;;;;;5.43;0.90;;;;;;;;;;4959421;28;20464;-76
2021/10/06 02:57:57;;;;;;;5.97;0.90;;;;;;;;;;4945414;28;20042;-75
2021/10/06 03:00:23;;;;;;;6.32;1.00;;;;;;;;;;4970946;28;20148;-75
2021/10/06 03:02:51;;;;;;;4.72;0.90;;;;;;;;;;4974789;28;20026;-76
2021/10/06 03:05:19;;;;;;;5.45;1.20;;;;;;;;;;4969134;28;20330;-75
2021/10/06 03:07:46;;;;;;;5.80;1.10;;;;;;;;;;4967148;28;20088;-75
2021/10/06 03:10:14;;;;;;;6.07;0.90;;;;;;;;;;4963796;28;20080;-75
2021/10/06 03:12:42;;;;;;;6.15;1.35;;;;;;;;;;4967513;28;20699;-75
2021/10/06 03:15:12;;;;;;;3.53;1.00;;;;;;;;;;4981153;28;20032;-75
2021/10/06 03:17:42;;;;;;;6.07;1.20;;;;;;;;;;4965770;28;20042;-75
2021/10/06 03:20:12;;;;;;;5.15;1.10;;;;;;;;;;4943762;28;20064;-76
2021/10/06 03:22:39;;;;;;;4.78;1.00;;;;;;;;;;4964116;28;20034;-75
2021/10/06 03:25:08;;;;;;;;;;;;;;;;;;4963933;28;20026;-75
2021/10/06 03:27:35;;;;;;;6.93;1.30;;;;;;;;;;4981968;28;20211;-75
2021/10/06 03:30:05;;;;;;;3.03;0.85;;;;;;;;;;4979436;28;20021;-75
2021/10/06 03:32:34;;;;;;;5.88;1.10;;;;;;;;;;4982523;28;20197;-75
2021/10/06 03:35:01;;;;;;;4.70;1.05;;;;;;;;;;4961073;28;20033;-76
2021/10/06 03:37:28;;;;;;;7.18;1.30;;;;;;;;;;4963946;28;20042;-77
2021/10/06 03:39:57;;;;;;;5.57;0.90;;;;;;;;;;4981255;28;20041;-77
2021/10/06 03:42:26;;;;;;;5.65;1.10;;;;;;;;;;4981066;28;20037;-75
2021/10/06 03:45:03;;;;;;;3.67;1.10;;;;;;;;;;4983335;28;20028;-75
2021/10/06 03:47:31;;;;;;;7.32;1.25;;;;;;;;;;4983618;28;20029;-78
2021/10/06 03:50:01;;;;;;;6.22;1.40;;;;;;;;;;4981345;28;20030;-77
2021/10/06 03:52:38;;;;;;;6.78;1.48;;;;;;;;;;4964383;28;20041;-78
2021/10/06 03:55:09;;;;;;;5.40;1.27;;;;;;;;;;4981590;28;20181;-78
2021/10/06 03:57:37;;;;;;;9.05;1.80;;;;;;;;;;4979887;28;20034;-76
2021/10/06 04:00:16;;;;;;;5.95;1.27;;;;;;;;;;4977371;28;20042;-76
2021/10/06 04:02:53;;;;;;;6.88;1.50;;;;;;;;;;4987438;28;20041;-76
2021/10/06 04:05:22;;;;;;;5.07;1.25;;;;;;;;;;4974851;28;21897;-76
2021/10/06 04:07:50;;;;;;;8.68;2.10;;;;;;;;;;4951330;28;20484;-76
2021/10/06 04:10:18;;;;;;;8.32;2.50;;;;;;;;;;4962835;28;20092;-76
2021/10/06 04:12:45;;;;;;;7.97;2.58;;;;;;;;;;4963422;28;20034;-76
2021/10/06 04:15:13;;;;;;;9.30;2.10;;;;;;;;;;4982355;28;20030;-76
2021/10/06 04:17:42;;;;;;;6.88;1.70;;;;;;;;;;4967604;28;20111;-76
2021/10/06 04:20:11;;;;;;;5.93;1.67;;;;;;;;;;4956888;28;20041;-75
2021/10/06 04:22:40;;;;;;;8.07;1.20;;;;;;;;;;4989627;28;20034;-75
2021/10/06 04:25:08;;;;;;;6.35;1.55;;;;;;;;;;4974716;28;20049;-76
2021/10/06 04:27:40;;;;;;;5.90;1.50;;;;;;;;;;4978587;28;20038;-76
2021/10/06 04:30:09;;;;;;;5.50;1.35;;;;;;;;;;4960337;28;20088;-76
2021/10/06 04:32:39;;;;;;;7.10;1.73;;;;;;;;;;4964361;28;20041;-75
2021/10/06 04:35:12;;;;;;;6.47;1.63;;;;;;;;;;4959561;28;20037;-76
2021/10/06 04:37:38;;;;;;;6.63;1.60;;;;;;;;;;4979262;28;20042;-76
2021/10/06 04:40:04;;;;;;;;;;;;;;;;;;4969404;28;20050;-76
2021/10/06 04:42:33;;;;;;;5.05;1.23;;;;;;;;;;4961105;28;19914;-76
2021/10/06 04:45:03;;;;;;;8.07;1.60;;;;;;;;;;4978978;28;20161;-76
2021/10/06 04:47:33;;;;;;;6.47;1.65;;;;;;;;;;4963637;28;21022;-75
2021/10/06 04:50:00;;;;;;;7.65;1.60;;;;;;;;;;4975720;28;20030;-77
2021/10/06 04:52:30;;;;;;;5.63;1.52;;;;;;;;;;4964582;28;20030;-76
2021/10/06 04:54:57;;;;;;;7.05;1.83;;;;;;;;;;4962241;28;20037;-76
2021/10/06 04:57:26;;;;;;;7.78;1.65;;;;;;;;;;4977229;28;20066;-76
2021/10/06 04:59:52;;;;;;;8.07;1.80;;;;;;;;;;4977346;28;20141;-76
2021/10/06 05:02:18;;;;;;;;;;;;;;;;;;4972700;28;20392;-76
2021/10/06 05:04:47;;;;;;;9.00;1.85;;;;;;;;;;4980477;28;21362;-76
2021/10/06 05:07:13;;;;;;;5.43;1.27;;;;;;;;;;4960081;28;20033;-76
2021/10/06 05:09:39;;;;;;;;;;;;;;;;;;4977961;28;20046;-76
2021/10/06 05:12:06;;;;;;;6.15;1.48;;;;;;;;;;4977097;28;19914;-76
2021/10/06 05:14:37;;;;;;;9.82;1.90;;;;;;;;;;4963992;28;20482;-76
2021/10/06 05:17:06;;;;;;;6.07;1.50;;;;;;;;;;4978140;28;20062;-75
2021/10/06 05:19:34;;;;;;;6.47;1.48;;;;;;;;;;4982175;28;20113;-75
2021/10/06 05:22:06;;;;;;;6.95;1.70;;;;;;;;;;4975523;28;20050;-75
2021/10/06 05:24:43;;;;;;;6.70;1.70;;;;;;;;;;4981383;28;20021;-75
2021/10/06 05:27:11;;;;;;;6.28;1.80;;;;;;;;;;4962420;28;20034;-76
2021/10/06 05:29:38;;;;;;;8.60;1.60;;;;;;;;;;4979872;28;20022;-76
2021/10/06 05:32:04;;;;;;;;;;;;;;;;;;4960707;28;20045;-75
2021/10/06 05:34:32;;;;;;;7.15;1.70;;;;;;;;;;4982949;28;19995;-76
2021/10/06 05:37:00;;;;;;;5.22;1.52;;;;;;;;;;4985754;28;20033;-76
2021/10/06 05:39:29;;;;;;;7.00;2.00;;;;;;;;;;4965694;28;20029;-76
2021/10/06 05:41:56;;;;;;;7.53;1.65;;;;;;;;;;4965256;28;20054;-76
2021/10/06 05:44:23;;;;;;;7.10;1.60;;;;;;;;;;4962701;28;20065;-75
2021/10/06 05:46:53;;;;;;;7.50;2.10;;;;;;;;;;4979781;28;20471;-76
2021/10/06 05:49:22;;;;;;;8.90;1.52;;;;;;;;;;4977500;28;20041;-77
2021/10/06 05:51:49;;;;;;;6.50;1.80;;;;;;;;;;4963705;28;20052;-77
2021/10/06 05:54:17;;;;;;;7.38;1.90;;;;;;;;;;4961314;28;20038;-77
2021/10/06 05:56:45;;;;;;;7.97;2.15;;;;;;;;;;4964499;28;20937;-77
2021/10/06 05:59:11;;;;;;;6.60;1.40;;;;;;;;;;4958211;28;20048;-77
2021/10/06 06:01:37;;;;;;;;;;;;;;;;;;4944788;28;20038;-77
2021/10/06 06:04:05;;;;;;;8.00;2.33;;;;;;;;;;4953631;28;19913;-77
2021/10/06 06:06:34;;;;;;;10.30;2.63;;;;;;;;;;4956515;28;20031;-76
2021/10/06 06:09:02;;;;;;;11.98;2.85;;;;;;;;;;4956050;28;20030;-77
2021/10/06 06:11:30;;;;;;;8.88;2.60;;;;;;;;;;4948009;28;20042;-76
2021/10/06 06:14:18;;;;;;;9.05;3.00;;;;;;;;;;4917908;28;20047;-76
2021/10/06 06:16:47;;;;;;;12.50;2.88;;;;;;;;;;4921175;28;20070;-76
2021/10/06 06:19:14;;;;;;;9.32;2.67;;;;;;;;;;4918568;28;20039;-76
2021/10/06 06:21:42;;;;;;;8.73;2.20;;;;;;;;;;4916353;28;20497;-76
2021/10/06 06:24:09;;;;;;;8.65;2.40;;;;;;;;;;4917966;28;20404;-76
2021/10/06 06:26:38;;;;;;;9.93;2.42;;;;;;;;;;4922207;28;20039;-76
2021/10/06 06:29:07;;;;;;;9.80;2.40;;;;;;;;;;4916794;28;20054;-76
2021/10/06 06:31:36;;;;;;;9.55;2.45;;;;;;;;;;4904845;28;20043;-77
2021/10/06 06:34:02;;;;;;;9.30;2.65;;;;;;;;;;4920245;28;20050;-76
2021/10/06 06:36:30;;;;;;;9.02;2.50;;;;;;;;;;4918909;28;20031;-76
2021/10/06 06:38:59;;;;;;;6.20;1.80;;;;;;;;;;4908260;29;20073;-75
2021/10/06 06:41:26;;;;;;;8.27;2.10;;;;;;;;;;4901056;28;20118;-76
2021/10/06 06:43:58;;;;;;;8.30;2.20;;;;;;;;;;4918877;28;20034;-75
2021/10/06 06:46:26;;;;;;;10.60;2.03;;;;;;;;;;4918754;28;20720;-75
2021/10/06 06:48:55;;;;;;;6.78;1.75;;;;;;;;;;4905204;29;20682;-75
2021/10/06 06:51:33;;;;;;;8.80;1.88;;;;;;;;;;4927683;28;21216;-78
2021/10/06 06:54:03;;;;;;;7.15;1.83;;;;;;;;;;4960032;28;20039;-78
2021/10/06 06:56:38;;;;;;;7.07;2.00;;;;;;;;;;4960650;28;20060;-76
2021/10/06 06:59:10;;;;;;;10.55;2.10;;;;;;;;;;4955827;28;20046;-77
2021/10/06 07:01:39;;;;;;;8.63;2.42;;;;;;;;;;4978693;28;20034;-77
2021/10/06 07:04:09;;;;;;;8.43;2.42;;;;;;;;;;4945857;28;20041;-77
2021/10/06 07:06:36;;;;;;;7.15;1.85;;;;;;;;;;4961813;28;20034;-77
2021/10/06 07:09:04;;;;;;;9.77;2.83;;;;;;;;;;4973084;28;20091;-77
2021/10/06 07:11:32;;;;;;;10.63;2.58;;;;;;;;;;4967692;28;20046;-77
2021/10/06 07:14:01;;;;;;;13.55;2.80;;;;;;;;;;4981744;28;20034;-77
2021/10/06 07:16:29;;;;;;;12.00;2.42;;;;;;;;;;4963189;28;20149;-77
2021/10/06 07:18:56;;;;;;;12.05;2.30;;;;;;;;;;4979641;28;20076;-77
2021/10/06 07:21:24;;;;;;;10.30;2.10;;;;;;;;;;4960751;28;20057;-77
2021/10/06 07:23:51;;;;;;;8.40;2.28;;;;;;;;;;4962970;28;20061;-77
2021/10/06 07:26:19;;;;;;;12.57;3.42;;;;;;;;;;4959979;28;20882;-77
2021/10/06 07:28:49;;;;;;;13.60;3.15;;;;;;;;;;4981263;28;20575;-77
2021/10/06 07:31:17;;;;;;;8.70;2.50;;;;;;;;;;4960767;28;20045;-77
2021/10/06 07:33:46;;;;;;;10.13;1.70;;;;;;;;;;4982064;28;20144;-77
2021/10/06 07:36:14;;;;;;;6.70;1.50;;;;;;;;;;4948042;28;20922;-76
2021/10/06 07:38:42;;;;;;;8.50;2.33;;;;;;;;;;4982454;28;20053;-76
2021/10/06 07:41:11;;;;;;;6.05;1.40;;;;;;;;;;4973910;28;20088;-76
2021/10/06 07:43:37;;;;;;;6.70;1.00;;;;;;;;;;4985289;28;20022;-76
2021/10/06 07:46:04;;;;;;;8.88;1.50;;;;;;;;;;4959747;28;20034;-77
2021/10/06 07:48:34;;;;;;;8.27;1.45;;;;;;;;;;4985557;28;20029;-77
2021/10/06 07:51:00;;;;;;;9.82;1.90;;;;;;;;;;4980175;28;20026;-76
2021/10/06 07:53:29;;;;;;;10.85;1.88;;;;;;;;;;4963603;28;20046;-76
2021/10/06 07:56:00;;;;;;;8.88;1.85;;;;;;;;;;4963973;28;20044;-76
2021/10/06 07:58:28;;;;;;;9.60;2.10;;;;;;;;;;4989732;28;20045;-76
2021/10/06 08:00:56;;;;;;;10.60;2.05;;;;;;;;;;4983716;28;20184;-77
2021/10/06 08:03:24;;;;;;;7.53;1.58;;;;;;;;;;4969788;28;20622;-76
2021/10/06 08:05:52;;;;;;;11.90;1.90;;;;;;;;;;4970362;28;20061;-76
2021/10/06 08:08:20;;;;;;;9.77;2.03;;;;;;;;;;4983810;28;20030;-77
2021/10/06 08:10:47;;;;;;;12.73;2.65;;;;;;;;;;4973051;28;20061;-75
2021/10/06 08:13:14;;;;;;;11.80;3.53;;;;;;;;;;4963675;28;20141;-76
2021/10/06 08:15:43;;;;;;;13.20;3.65;;;;;;;;;;4991309;28;20030;-76
2021/10/06 08:18:09;;;;;;;13.23;3.20;;;;;;;;;;4970307;28;20038;-76
2021/10/06 08:20:36;;;;;;;12.70;3.05;;;;;;;;;;4971590;28;20042;-76
2021/10/06 08:23:06;;;;;;;15.90;3.67;;;;;;;;;;4987212;28;20037;-76
2021/10/06 08:25:33;;;;;;;16.60;5.07;;;;;;;;;;4991138;28;20925;-76
2021/10/06 08:27:59;;;;;;;17.63;5.05;;;;;;;;;;4974988;28;20497;-76
2021/10/06 08:30:29;;;;;;;18.33;5.43;;;;;;;;;;4976532;28;20517;-76
2021/10/06 08:32:58;;;;;;;18.35;5.07;;;;;;;;;;4955155;28;20045;-76
2021/10/06 08:35:24;;;;;;;13.93;4.00;;;;;;;;;;4969957;28;20034;-76
2021/10/06 08:37:53;;;;;;;10.98;2.75;;;;;;;;;;4973578;28;20038;-78
2021/10/06 08:40:20;;;;;;;11.40;2.72;;;;;;;;;;4969941;28;20041;-76
2021/10/06 08:42:48;;;;;;;12.48;2.85;;;;;;;;;;4960161;28;20062;-77
2021/10/06 08:45:24;;;;;;;14.13;3.22;;;;;;;;;;4964277;28;20545;-76
2021/10/06 08:47:50;;;;;;;12.48;3.00;;;;;;;;;;4987312;28;20025;-77
2021/10/06 08:50:18;;;;;;;12.60;2.33;;;;;;;;;;4983112;28;20080;-76
2021/10/06 08:52:48;;;;;;;10.52;2.20;;;;;;;;;;4981026;28;20033;-76
2021/10/06 08:55:17;;;;;;;13.02;2.50;;;;;;;;;;4967222;28;20046;-76
2021/10/06 08:57:45;;;;;;;15.57;2.72;;;;;;;;;;4991043;28;21685;-76
2021/10/06 09:00:12;;;;;;;11.20;2.70;;;;;;;;;;4956415;28;20045;-76
2021/10/06 09:02:41;;;;;;;12.05;2.80;;;;;;;;;;4971885;28;20503;-76
2021/10/06 09:05:14;;;;;;;17.00;3.15;;;;;;;;;;4980359;28;20017;-77
2021/10/06 09:07:59;;;;;;;12.07;2.28;;;;;;;;;;4969614;28;20423;-77
2021/10/06 09:10:36;;;;;;;15.02;2.30;;;;;;;;;;4984654;28;20037;-75
2021/10/06 09:13:17;;;;;;;14.13;2.50;;;;;;;;;;4984062;28;21130;-75
2021/10/06 09:15:49;;;;;;;15.82;3.22;;;;;;;;;;4968275;28;20119;-76
2021/10/06 09:18:25;;;;;;;14.07;2.72;;;;;;;;;;4963649;28;20044;-76
2021/10/06 09:20:53;;;;;;;16.85;3.17;;;;;;;;;;4988149;28;20121;-77
2021/10/06 09:23:22;;;;;;;15.82;3.35;;;;;;;;;;4964994;28;20033;-76
2021/10/06 09:26:02;;;;;;;15.77;3.20;;;;;;;;;;4969776;28;20533;-75
2021/10/06 09:28:32;;;;;;;13.35;2.88;;;;;;;;;;4987068;28;20181;-76
2021/10/06 09:31:09;;;;;;;16.13;3.50;;;;;;;;;;4966774;28;20192;-76
2021/10/06 09:33:47;;;;;;;13.77;3.15;;;;;;;;;;4988198;28;20037;-77
2021/10/06 09:36:25;;;;;;;16.98;3.20;;;;;;;;;;4966817;28;20037;-76
2021/10/06 09:38:54;;;;;;;18.38;3.20;;;;;;;;;;4985644;28;20088;-76
2021/10/06 09:41:26;;;;;;;15.10;3.22;;;;;;;;;;4982223;28;20573;-76
2021/10/06 09:44:02;;;;;;;15.93;2.88;;;;;;;;;;4989698;28;20105;-75
2021/10/06 09:46:49;;;;;;;17.40;3.00;;;;;;;;;;4970106;28;20026;-76
2021/10/06 09:49:29;;;;;;;17.73;2.90;;;;;;;;;;4962981;28;20133;-76
2021/10/06 09:52:14;;;;;;;15.02;2.40;;;;;;;;;;4988718;28;20041;-76
2021/10/06 09:54:42;;;;;;;17.10;2.85;;;;;;;;;;4965008;28;20113;-76
2021/10/06 09:57:09;;;;;;;15.98;2.75;;;;;;;;;;4985853;28;20037;-76
2021/10/06 09:59:38;;;;;;;15.90;3.05;;;;;;;;;;4972793;28;20049;-79
2021/10/06 10:02:04;;;;;;;19.75;3.30;;;;;;;;;;4949585;28;20042;-77
2021/10/06 10:04:32;;;;;;;13.45;2.88;;;;;;;;;;4969675;28;20553;-76
2021/10/06 10:07:01;;;;;;;17.10;3.17;;;;;;;;;;4981421;28;20061;-76
2021/10/06 10:09:29;;;;;;;15.52;3.28;;;;;;;;;;4981981;28;20116;-76
2021/10/06 10:11:57;;;;;;;17.42;3.38;;;;;;;;;;4968974;28;20021;-77
2021/10/06 10:14:29;;;;;;;18.98;3.58;;;;;;;;;;4960543;28;20107;-76
2021/10/06 10:16:56;;;;;;;18.15;3.50;;;;;;;;;;4980219;28;20125;-78
2021/10/06 10:19:26;;;;;;;19.38;3.58;;;;;;;;;;4980745;28;20112;-76
2021/10/06 10:21:57;;;;;;;17.60;3.33;;;;;;;;;;4978753;28;20574;-76
2021/10/06 10:24:29;;;;;;;17.65;3.70;;;;;;;;;;4980690;28;20376;-77
2021/10/06 10:27:07;;;;;;;13.55;3.47;;;;;;;;;;4950203;28;20052;-76
2021/10/06 10:29:47;;;;;;;16.45;3.45;;;;;;;;;;4979480;28;20042;-76
2021/10/06 10:32:26;;;;;;;19.23;3.90;;;;;;;;;;4976654;28;20406;-76
2021/10/06 10:35:12;;;;;;;19.40;3.90;;;;;;;;;;4982672;28;20029;-76
2021/10/06 10:37:53;;;;;;;15.30;2.75;;;;;;;;;;4979165;28;20124;-78
2021/10/06 10:40:36;;;;;;;16.17;3.15;;;;;;;;;;4980814;28;20821;-79
2021/10/06 10:43:22;;;;;;;14.30;2.72;;;;;;;;;;4959593;28;20040;-78
2021/10/06 10:46:05;;;;;;;16.70;2.92;;;;;;;;;;4981447;28;20026;-78
2021/10/06 10:48:52;;;;;;;13.90;2.67;;;;;;;;;;4985383;28;20087;-76
2021/10/06 10:51:19;;;;;;;17.40;2.88;;;;;;;;;;4974146;28;20030;-76
2021/10/06 10:53:57;;;;;;;16.05;3.83;;;;;;;;;;4982103;28;20027;-76
2021/10/06 10:56:45;;;;;;;14.57;3.00;;;;;;;;;;4980137;28;20033;-76
2021/10/06 10:59:17;;;;;;;14.43;2.90;;;;;;;;;;4961990;28;20068;-76
2021/10/06 11:01:54;;;;;;;14.57;2.90;;;;;;;;;;4947050;28;21276;-77
2021/10/06 11:04:29;;;;;;;16.50;4.00;;;;;;;;;;4960429;28;20028;-76
2021/10/06 11:07:19;;;;;;;13.95;3.25;;;;;;;;;;4946821;28;20081;-76
2021/10/06 11:10:01;;;;;;;17.40;4.30;;;;;;;;;;4947768;28;20038;-76
2021/10/06 11:12:30;;;;;;;19.70;4.97;;;;;;;;;;4961978;28;20108;-78
2021/10/06 11:15:17;;;;;;;15.55;3.72;;;;;;;;;;4964890;28;20030;-78
2021/10/06 11:18:03;;;;;;;14.23;3.47;;;;;;;;;;4958702;28;20053;-78
2021/10/06 11:20:48;;;;;;;16.42;3.30;;;;;;;;;;4937216;28;20081;-78
2021/10/06 11:23:37;;;;;;;22.10;4.60;;;;;;;;;;4949042;28;20043;-78
2021/10/06 11:26:10;;;;;;;14.15;4.00;;;;;;;;;;4956516;28;20038;-78
2021/10/06 11:28:39;;;;;;;19.27;5.03;;;;;;;;;;4944501;28;20046;-78
2021/10/06 11:31:07;;;;;;;16.92;3.20;;;;;;;;;;4962364;28;20441;-77
2021/10/06 11:33:34;;;;;;;14.13;2.90;;;;;;;;;;4951289;28;20219;-78
2021/10/06 11:36:18;;;;;;;18.70;2.85;;;;;;;;;;4927757;28;20038;-76
2021/10/06 11:38:47;;;;;;;18.45;3.60;;;;;;;;;;4961055;28;20030;-76
2021/10/06 11:41:15;;;;;;;18.20;3.85;;;;;;;;;;4961002;28;20038;-76
2021/10/06 11:43:49;;;;;;;17.95;3.35;;;;;;;;;;4960927;28;20065;-76
2021/10/06 11:46:18;;;;;;;17.67;3.38;;;;;;;;;;4962719;28;20023;-76
2021/10/06 11:48:48;;;;;;;15.55;3.20;;;;;;;;;;4965577;28;20038;-76
2021/10/06 11:51:16;;;;;;;15.02;2.92;;;;;;;;;;4924207;28;20042;-76
2021/10/06 11:53:48;;;;;;;17.92;3.63;;;;;;;;;;4945915;28;20034;-76
2021/10/06 11:56:27;;;;;;;15.63;3.35;;;;;;;;;;4956660;28;20089;-77
2021/10/06 11:58:56;;;;;;;15.85;4.03;;;;;;;;;;4945744;28;20061;-78
2021/10/06 12:01:24;;;;;;;16.73;3.72;;;;;;;;;;4983127;28;20060;-77
2021/10/06 12:03:54;;;;;;;15.48;3.20;;;;;;;;;;4965646;28;20037;-77
2021/10/06 12:06:21;;;;;;;13.50;3.00;;;;;;;;;;4978890;28;20067;-77
2021/10/06 12:08:49;;;;;;;17.13;3.60;;;;;;;;;;4986042;28;20040;-77
2021/10/06 12:11:17;;;;;;;16.08;3.58;;;;;;;;;;4977898;28;20034;-78
2021/10/06 12:13:46;;;;;;;19.35;3.50;;;;;;;;;;4969360;28;20700;-77
2021/10/06 12:16:24;;;;;;;12.98;3.05;;;;;;;;;;4981681;28;20026;-77
2021/10/06 12:19:04;;;;;;;16.98;3.33;;;;;;;;;;4979372;28;20022;-77
2021/10/06 12:21:45;;;;;;;16.73;3.30;;;;;;;;;;4982215;28;20450;-77
2021/10/06 12:24:18;;;;;;;16.35;3.10;;;;;;;;;;4962231;28;20060;-77
2021/10/06 12:26:44;;;;;;;17.13;3.10;;;;;;;;;;4961796;28;20333;-77
2021/10/06 12:29:13;;;;;;;14.77;3.08;;;;;;;;;;4968065;28;20574;-77
2021/10/06 12:31:42;;;;;;;14.57;3.05;;;;;;;;;;4946483;28;20038;-77
2021/10/06 12:34:11;;;;;;;16.52;3.20;;;;;;;;;;4976828;28;20126;-77
2021/10/06 12:36:45;;;;;;;16.05;3.67;;;;;;;;;;4967889;28;20052;-77
2021/10/06 12:39:15;;;;;;;18.38;3.92;;;;;;;;;;4963286;28;20030;-77
2021/10/06 12:41:51;;;;;;;14.75;3.13;;;;;;;;;;4964200;28;20125;-77
2021/10/06 12:44:34;;;;;;;15.90;3.33;;;;;;;;;;4949335;28;20045;-78
2021/10/06 12:47:19;;;;;;;16.58;3.05;;;;;;;;;;4977148;28;20044;-78
2021/10/06 12:49:46;;;;;;;14.18;2.80;;;;;;;;;;4964193;28;20030;-77
2021/10/06 12:52:22;;;;;;;13.98;3.00;;;;;;;;;;4976965;28;20018;-78
2021/10/06 12:55:06;;;;;;;14.32;3.08;;;;;;;;;;4964663;28;20535;-77
2021/10/06 12:57:32;;;;;;;13.60;3.25;;;;;;;;;;4966968;28;20029;-77
2021/10/06 13:00:00;;;;;;;16.17;3.20;;;;;;;;;;4966302;28;20487;-76
2021/10/06 13:02:27;;;;;;;12.88;2.67;;;;;;;;;;4980010;28;20124;-79
2021/10/06 13:04:56;;;;;;;15.23;3.47;;;;;;;;;;4963528;28;20054;-76
2021/10/06 13:07:25;;;;;;;13.65;3.10;;;;;;;;;;4980680;28;20073;-76
2021/10/06 13:09:55;;;;;;;12.80;3.17;;;;;;;;;;4981432;28;20121;-77
2021/10/06 13:12:22;;;;;;;11.98;2.90;;;;;;;;;;4963269;28;20037;-77
2021/10/06 13:14:49;;;;;;;13.98;3.00;;;;;;;;;;4978368;28;20155;-76
2021/10/06 13:17:19;;;;;;;14.55;2.85;;;;;;;;;;4980305;28;20658;-78
2021/10/06 13:19:45;;;;;;;13.27;2.63;;;;;;;;;;4969622;28;20044;-79
2021/10/06 13:22:24;;;;;;;11.38;2.47;;;;;;;;;;4966774;28;20061;-79
2021/10/06 13:24:53;;;;;;;12.88;2.53;;;;;;;;;;4979146;28;20038;-76
2021/10/06 13:27:19;;;;;;;12.30;2.40;;;;;;;;;;4963148;28;20109;-76
2021/10/06 13:29:46;;;;;;;15.05;2.92;;;;;;;;;;4984133;28;20080;-77
2021/10/06 13:32:13;;;;;;;12.82;2.30;;;;;;;;;;4960359;28;20044;-78
2021/10/06 13:34:42;;;;;;;13.02;2.25;;;;;;;;;;4969576;28;20042;-77
2021/10/06 13:37:12;;;;;;;12.45;2.35;;;;;;;;;;4979582;28;20097;-77
2021/10/06 13:39:42;;;;;;;13.82;2.28;;;;;;;;;;4966351;28;20029;-77
2021/10/06 13:42:13;;;;;;;14.00;2.42;;;;;;;;;;4977850;28;20034;-77
2021/10/06 13:44:41;;;;;;;12.05;2.20;;;;;;;;;;4963189;28;20069;-77
2021/10/06 13:47:11;;;;;;;12.85;2.30;;;;;;;;;;4981059;28;20026;-77
2021/10/06 13:49:41;;;;;;;12.50;2.53;;;;;;;;;;4991071;28;20034;-77
2021/10/06 13:52:08;;;;;;;12.77;2.50;;;;;;;;;;4976484;28;20026;-77
2021/10/06 13:54:36;;;;;;;12.15;2.83;;;;;;;;;;4988930;28;20026;-77
2021/10/06 13:57:05;;;;;;;12.38;2.38;;;;;;;;;;4979723;28;20022;-76
2021/10/06 13:59:38;;;;;;;12.57;2.85;;;;;;;;;;4983103;28;20106;-77
2021/10/06 14:02:06;;;;;;;14.48;2.33;;;;;;;;;;4972306;28;20042;-77
2021/10/06 14:04:33;;;;;;;11.98;2.38;;;;;;;;;;4983897;28;20049;-77
2021/10/06 14:07:03;;;;;;;13.45;2.33;;;;;;;;;;4952482;28;20903;-77
2021/10/06 14:09:31;;;;;;;9.35;1.77;;;;;;;;;;4989219;28;20022;-77
2021/10/06 14:11:57;;;;;;;9.48;2.08;;;;;;;;;;4963200;28;20042;-77
2021/10/06 14:14:25;;;;;;;10.95;2.10;;;;;;;;;;4979731;28;20037;-78
2021/10/06 14:16:55;;;;;;;12.73;2.40;;;;;;;;;;4971877;28;20034;-78
2021/10/06 14:19:23;;;;;;;13.43;2.60;;;;;;;;;;4961111;28;20033;-76
2021/10/06 14:21:51;;;;;;;12.20;2.08;;;;;;;;;;4971251;28;20034;-77
2021/10/06 14:24:19;;;;;;;14.98;2.88;;;;;;;;;;4967795;28;20041;-76
2021/10/06 14:26:47;;;;;;;13.65;2.05;;;;;;;;;;4964130;28;20149;-76
2021/10/06 14:29:13;;;;;;;13.48;2.70;;;;;;;;;;4962356;28;20026;-76
2021/10/06 14:31:42;;;;;;;13.30;2.33;;;;;;;;;;4981053;28;20033;-76
2021/10/06 14:34:10;;;;;;;14.32;2.38;;;;;;;;;;4962429;28;20217;-77
2021/10/06 14:36:37;;;;;;;11.82;2.30;;;;;;;;;;4963892;28;20034;-77
2021/10/06 14:39:07;;;;;;;13.23;2.35;;;;;;;;;;4957801;28;20041;-77
2021/10/06 14:41:35;;;;;;;16.23;2.67;;;;;;;;;;4967699;28;20123;-77
2021/10/06 14:44:24;;;;;;;10.40;2.00;;;;;;;;;;4959444;28;20997;-78
2021/10/06 14:46:55;;;;;;;14.57;2.35;;;;;;;;;;4972573;28;20065;-78
2021/10/06 14:49:26;;;;;;;14.10;2.45;;;;;;;;;;4959024;28;20072;-78
2021/10/06 14:52:03;;;;;;;15.30;2.45;;;;;;;;;;4971608;28;20048;-78
2021/10/06 14:54:33;;;;;;;12.95;2.35;;;;;;;;;;4961907;28;20053;-78
2021/10/06 14:57:09;;;;;;;14.20;2.53;;;;;;;;;;4960316;28;20046;-77